Time;durP1;ratioP1;P1;durP2;ratioP2;P2;SDS_P1;SDS_P2;PMS_P1;PMS_P2;Temp;Humidity;BMP_temperature;BMP_pressure;BME280_temperature;BME280_humidity;BME280_pressure;Samples;Min_cycle;Max_cycle;Signal;HPM_P1;HPM_P2
2023/03/10 00:01:12;;;;;;;3.05;2.28;;;;;9.90;98564.00;;;;5047179;28;20569;-76
2023/03/10 00:03:41;;;;;;;3.17;2.40;;;;;10.00;98561.00;;;;5049512;28;20195;-76
2023/03/10 00:06:10;;;;;;;4.72;2.50;;;;;10.00;98565.00;;;;5047134;28;20203;-75
2023/03/10 00:08:37;;;;;;;2.20;1.77;;;;;10.00;98569.00;;;;5049783;28;20341;-75
2023/03/10 00:11:05;;;;;;;2.00;1.80;;;;;10.00;98567.00;;;;5050102;28;20192;-76
2023/03/10 00:13:32;;;;;;;3.35;2.28;;;;;10.10;98568.00;;;;5047421;28;20211;-75
2023/03/10 00:16:00;;;;;;;2.00;1.80;;;;;10.00;98566.00;;;;5046913;28;20206;-75
2023/03/10 00:18:28;;;;;;;2.63;2.13;;;;;10.10;98569.00;;;;5041573;28;20203;-76
2023/03/10 00:20:55;;;;;;;2.55;2.15;;;;;10.10;98568.00;;;;5047552;28;20573;-76
2023/03/10 00:23:23;;;;;;;2.97;1.95;;;;;10.10;98569.00;;;;5045557;28;20745;-76
2023/03/10 00:25:55;;;;;;;2.45;1.95;;;;;10.10;98579.00;;;;5048785;28;20207;-76
2023/03/10 00:28:22;;;;;;;2.25;1.77;;;;;10.10;98580.00;;;;5042747;28;20199;-76
2023/03/10 00:31:02;;;;;;;2.63;1.98;;;;;10.00;98572.00;;;;5049471;28;20210;-76
2023/03/10 00:33:31;;;;;;;2.50;2.03;;;;;10.10;98577.00;;;;5049752;28;20187;-76
2023/03/10 00:36:04;;;;;;;2.65;2.30;;;;;10.10;98565.00;;;;5047104;28;20564;-76
2023/03/10 00:38:31;;;;;;;3.00;2.33;;;;;10.20;98571.00;;;;5048003;28;20231;-76
2023/03/10 00:40:59;;;;;;;2.53;1.95;;;;;10.20;98566.00;;;;5045865;28;20204;-76
2023/03/10 00:43:28;;;;;;;2.30;2.10;;;;;10.20;98568.00;;;;5045679;28;20222;-76
2023/03/10 00:45:55;;;;;;;2.72;2.20;;;;;10.20;98565.00;;;;5028676;28;20204;-75
2023/03/10 00:48:24;;;;;;;3.03;2.30;;;;;10.20;98564.00;;;;5039996;28;20215;-76
2023/03/10 00:50:51;;;;;;;2.42;1.85;;;;;10.20;98555.00;;;;5047189;28;20211;-76
2023/03/10 00:53:19;;;;;;;2.50;2.00;;;;;10.20;98558.00;;;;5048892;28;20203;-75
2023/03/10 00:55:57;;;;;;;2.20;1.98;;;;;10.20;98567.00;;;;5047213;28;20211;-75
2023/03/10 00:58:25;;;;;;;2.78;2.10;;;;;10.20;98567.00;;;;5036277;28;20232;-75
2023/03/10 01:00:53;;;;;;;2.78;2.13;;;;;10.20;98555.00;;;;5045740;28;20199;-75
2023/03/10 01:03:21;;;;;;;2.47;1.90;;;;;10.30;98562.00;;;;5028537;28;20227;-76
2023/03/10 01:05:50;;;;;;;3.30;2.30;;;;;10.20;98565.00;;;;5041946;28;20211;-75
2023/03/10 01:08:17;;;;;;;2.28;2.08;;;;;10.30;98570.00;;;;5048580;28;20239;-75
2023/03/10 01:10:45;;;;;;;3.42;2.10;;;;;10.30;98571.00;;;;5047040;28;20610;-75
2023/03/10 01:13:13;;;;;;;2.40;2.00;;;;;10.30;98559.00;;;;5044399;28;20192;-75
2023/03/10 01:15:43;;;;;;;3.08;2.35;;;;;10.30;98563.00;;;;5034714;28;20211;-74
2023/03/10 01:18:10;;;;;;;3.47;2.38;;;;;10.30;98556.00;;;;5047177;28;20695;-76
2023/03/10 01:20:40;;;;;;;3.00;2.47;;;;;10.30;98552.00;;;;5045914;28;20685;-75
2023/03/10 01:23:12;;;;;;;2.83;2.28;;;;;10.30;98550.00;;;;5047088;28;20223;-75
2023/03/10 01:25:40;;;;;;;3.13;2.20;;;;;10.30;98552.00;;;;5045265;28;20204;-76
2023/03/10 01:28:07;;;;;;;2.85;2.40;;;;;10.30;98537.00;;;;5041547;28;20203;-75
2023/03/10 01:30:34;;;;;;;3.05;2.42;;;;;10.30;98530.00;;;;5046029;28;20204;-75
2023/03/10 01:33:02;;;;;;;3.15;2.13;;;;;10.40;98537.00;;;;5041953;28;20200;-75
2023/03/10 01:35:30;;;;;;;3.70;2.70;;;;;10.40;98540.00;;;;5047055;28;20570;-75
2023/03/10 01:37:57;;;;;;;3.38;2.58;;;;;10.40;98547.00;;;;5047559;28;20234;-75
2023/03/10 01:40:27;;;;;;;3.15;2.47;;;;;10.40;98547.00;;;;5045669;28;20212;-75
2023/03/10 01:43:09;;;;;;;4.20;2.55;;;;;10.40;98536.00;;;;5040112;28;20222;-75
2023/03/10 01:46:28;;;;;;;3.90;2.72;;;;;10.30;98538.00;;;;5047522;28;20207;-75
2023/03/10 01:48:58;;;;;;;3.42;2.70;;;;;10.30;98521.00;;;;5046640;28;20207;-75
2023/03/10 01:51:25;;;;;;;2.72;2.00;;;;;10.40;98521.00;;;;5048146;28;20195;-76
2023/03/10 01:53:53;;;;;;;2.85;2.50;;;;;10.40;98521.00;;;;5042449;28;20204;-75
2023/03/10 01:56:22;;;;;;;3.55;2.70;;;;;10.40;98527.00;;;;5048265;28;20203;-76
2023/03/10 01:58:50;;;;;;;3.83;2.67;;;;;10.30;98522.00;;;;5045836;28;20756;-75
2023/03/10 02:01:18;;;;;;;3.53;2.78;;;;;10.30;98525.00;;;;5047793;28;20196;-75
2023/03/10 02:03:52;;;;;;;3.45;2.60;;;;;10.30;98520.00;;;;5047635;28;20203;-76
2023/03/10 02:06:21;;;;;;;3.08;2.03;;;;;10.30;98518.00;;;;5037189;28;20200;-76
2023/03/10 02:08:53;;;;;;;2.33;2.13;;;;;10.30;98515.00;;;;5047856;28;20198;-76
2023/03/10 02:11:22;;;;;;;3.28;2.38;;;;;10.40;98512.00;;;;5048617;28;20203;-76
2023/03/10 02:13:49;;;;;;;3.35;2.65;;;;;10.40;98508.00;;;;5047195;28;20195;-75
2023/03/10 02:16:17;;;;;;;3.20;2.60;;;;;10.40;98510.00;;;;5048160;28;20203;-76
2023/03/10 02:18:46;;;;;;;2.55;2.10;;;;;10.40;98507.00;;;;5045989;28;20242;-76
2023/03/10 02:21:23;;;;;;;2.50;2.25;;;;;10.40;98504.00;;;;5047945;28;20196;-76
2023/03/10 02:23:58;;;;;;;3.05;2.63;;;;;10.40;98504.00;;;;5045183;28;20215;-76
2023/03/10 02:26:35;;;;;;;3.05;2.25;;;;;10.40;98499.00;;;;5047414;28;21260;-76
2023/03/10 02:29:08;;;;;;;3.03;2.50;;;;;10.40;98489.00;;;;5045833;28;20389;-75
2023/03/10 02:31:35;;;;;;;2.67;2.13;;;;;10.40;98491.00;;;;5042085;28;20204;-76
2023/03/10 02:34:05;;;;;;;2.88;2.58;;;;;10.40;98486.00;;;;5047318;28;20208;-76
2023/03/10 02:36:33;;;;;;;2.42;2.22;;;;;10.40;98478.00;;;;5048119;28;20717;-76
2023/03/10 02:39:00;;;;;;;4.20;2.40;;;;;10.40;98478.00;;;;5045987;28;20223;-76
2023/03/10 02:41:31;;;;;;;2.42;1.83;;;;;10.40;98487.00;;;;5028454;28;20200;-76
2023/03/10 02:44:01;;;;;;;2.63;2.20;;;;;10.40;98481.00;;;;5035558;28;20199;-76
2023/03/10 02:46:29;;;;;;;2.40;1.95;;;;;10.40;98470.00;;;;5046793;28;20204;-76
2023/03/10 02:49:00;;;;;;;2.55;1.98;;;;;10.40;98472.00;;;;5049693;28;20208;-76
2023/03/10 02:51:31;;;;;;;2.22;2.03;;;;;10.40;98465.00;;;;5048399;28;20212;-76
2023/03/10 02:54:00;;;;;;;2.15;1.92;;;;;10.40;98463.00;;;;5042484;28;20204;-76
2023/03/10 02:56:27;;;;;;;2.20;1.98;;;;;10.40;98465.00;;;;5040762;28;20218;-76
2023/03/10 02:58:55;;;;;;;2.30;2.05;;;;;10.50;98465.00;;;;5033609;28;20578;-76
2023/03/10 03:01:22;;;;;;;2.75;2.05;;;;;10.40;98461.00;;;;5050902;28;20195;-76
2023/03/10 03:03:51;;;;;;;2.53;2.05;;;;;10.40;98455.00;;;;5050475;28;20207;-76
2023/03/10 03:06:18;;;;;;;2.40;1.98;;;;;10.40;98461.00;;;;5051501;28;20208;-77
2023/03/10 03:08:45;;;;;;;2.35;1.90;;;;;10.40;98454.00;;;;5050657;28;20196;-76
2023/03/10 03:11:13;;;;;;;2.15;1.95;;;;;10.50;98452.00;;;;5051410;28;20214;-76
2023/03/10 03:13:41;;;;;;;2.38;2.10;;;;;10.50;98455.00;;;;5044183;28;20213;-76
2023/03/10 03:16:09;;;;;;;1.83;1.52;;;;;10.50;98454.00;;;;5033095;28;20558;-76
2023/03/10 03:18:37;;;;;;;2.17;1.95;;;;;10.50;98456.00;;;;5051298;28;20227;-77
2023/03/10 03:21:09;;;;;;;2.38;2.00;;;;;10.50;98452.00;;;;5049997;28;20196;-76
2023/03/10 03:23:36;;;;;;;2.92;2.28;;;;;10.50;98450.00;;;;5050139;28;20237;-76
2023/03/10 03:26:04;;;;;;;2.17;1.83;;;;;10.50;98446.00;;;;5042785;28;20208;-76
2023/03/10 03:28:32;;;;;;;2.10;1.90;;;;;10.50;98441.00;;;;5049050;28;20203;-76
2023/03/10 03:31:00;;;;;;;2.38;2.03;;;;;10.50;98440.00;;;;5048760;28;20598;-76
2023/03/10 03:33:28;;;;;;;2.65;2.10;;;;;10.50;98445.00;;;;5046157;28;20199;-76
2023/03/10 03:35:55;;;;;;;2.05;1.73;;;;;10.50;98451.00;;;;5068867;28;20611;-76
2023/03/10 03:38:24;;;;;;;2.15;1.85;;;;;10.50;98445.00;;;;5060229;28;20227;-76
2023/03/10 03:40:51;;;;;;;2.28;1.98;;;;;10.50;98456.00;;;;5044435;28;20204;-76
2023/03/10 03:43:19;;;;;;;1.90;1.48;;;;;10.50;98442.00;;;;5032769;28;20207;-76
2023/03/10 03:45:46;;;;;;;2.05;1.73;;;;;10.50;98446.00;;;;5049367;28;20205;-76
2023/03/10 03:48:14;;;;;;;1.27;1.15;;;;;10.50;98448.00;;;;5038306;28;20200;-76
2023/03/10 03:50:41;;;;;;;1.35;1.25;;;;;10.50;98435.00;;;;5037313;28;20196;-76
2023/03/10 03:53:09;;;;;;;1.48;1.23;;;;;10.50;98432.00;;;;5048028;28;20195;-76
2023/03/10 03:55:37;;;;;;;2.00;1.30;;;;;10.50;98442.00;;;;5034032;28;20196;-76
2023/03/10 03:58:05;;;;;;;1.27;1.15;;;;;10.50;98441.00;;;;5048270;28;20219;-77
2023/03/10 04:00:33;;;;;;;1.08;0.93;;;;;10.50;98432.00;;;;5046482;28;20206;-77
2023/03/10 04:03:01;;;;;;;1.25;1.08;;;;;10.50;98433.00;;;;5049300;28;20199;-76
2023/03/10 04:05:28;;;;;;;1.25;1.05;;;;;10.50;98438.00;;;;5043515;28;20860;-76
2023/03/10 04:07:56;;;;;;;1.02;0.90;;;;;10.50;98435.00;;;;5047432;28;20224;-76
2023/03/10 04:10:25;;;;;;;1.13;0.75;;;;;10.50;98439.00;;;;5048821;28;20199;-76
2023/03/10 04:12:55;;;;;;;0.77;0.77;;;;;10.50;98440.00;;;;5048850;28;20251;-76
2023/03/10 04:15:22;;;;;;;1.27;1.08;;;;;10.50;98431.00;;;;5049999;28;20195;-76
2023/03/10 04:17:50;;;;;;;0.90;0.70;;;;;10.50;98445.00;;;;5048362;28;20223;-76
2023/03/10 04:20:17;;;;;;;1.65;1.25;;;;;10.50;98443.00;;;;5048768;28;20206;-76
2023/03/10 04:22:44;;;;;;;1.95;1.10;;;;;10.50;98424.00;;;;5045288;28;20215;-76
2023/03/10 04:25:12;;;;;;;1.13;1.00;;;;;10.50;98436.00;;;;5049524;28;20199;-76
2023/03/10 04:27:39;;;;;;;1.80;1.23;;;;;10.50;98444.00;;;;5048192;28;20195;-76
2023/03/10 04:30:09;;;;;;;1.65;1.38;;;;;10.40;98446.00;;;;5047870;28;20203;-76
2023/03/10 04:32:37;;;;;;;2.08;1.52;;;;;10.50;98453.00;;;;5047643;28;20200;-76
2023/03/10 04:35:05;;;;;;;1.90;1.45;;;;;10.50;98450.00;;;;5043907;28;20203;-76
2023/03/10 04:37:32;;;;;;;1.40;1.30;;;;;10.40;98449.00;;;;5044853;28;20207;-76
2023/03/10 04:40:00;;;;;;;1.70;1.60;;;;;10.40;98451.00;;;;5045944;28;20588;-76
2023/03/10 04:42:27;;;;;;;1.55;1.42;;;;;10.40;98443.00;;;;5045796;28;20673;-76
2023/03/10 04:44:55;;;;;;;2.33;1.58;;;;;10.40;98441.00;;;;5047253;28;20208;-76
2023/03/10 04:47:23;;;;;;;1.75;1.35;;;;;10.40;98433.00;;;;5046958;28;20206;-76
2023/03/10 04:49:51;;;;;;;1.92;1.55;;;;;10.40;98434.00;;;;5048235;28;20195;-76
2023/03/10 04:52:18;;;;;;;2.03;1.55;;;;;10.30;98440.00;;;;5045451;28;20211;-76
2023/03/10 04:54:45;;;;;;;1.65;1.55;;;;;10.30;98433.00;;;;5057947;28;20584;-75
2023/03/10 04:57:12;;;;;;;2.78;1.88;;;;;10.30;98426.00;;;;5043674;28;20198;-75
2023/03/10 04:59:40;;;;;;;3.22;2.03;;;;;10.20;98424.00;;;;5055545;28;20684;-75
2023/03/10 05:02:07;;;;;;;2.33;1.77;;;;;10.20;98430.00;;;;5048592;28;20198;-76
2023/03/10 05:04:38;;;;;;;2.15;1.70;;;;;10.20;98437.00;;;;5049079;28;20208;-76
2023/03/10 05:07:05;;;;;;;2.38;2.03;;;;;10.20;98435.00;;;;5048738;28;20223;-76
2023/03/10 05:09:35;;;;;;;3.08;2.10;;;;;10.20;98440.00;;;;5048860;28;20214;-75
2023/03/10 05:12:04;;;;;;;2.42;2.17;;;;;10.20;98443.00;;;;5045115;28;20257;-76
2023/03/10 05:14:31;;;;;;;2.05;1.60;;;;;10.10;98428.00;;;;5029300;28;20200;-76
2023/03/10 05:16:58;;;;;;;2.65;1.83;;;;;10.20;98430.00;;;;5035795;28;20258;-75
2023/03/10 05:19:27;;;;;;;2.70;2.10;;;;;10.10;98430.00;;;;5049085;28;20242;-76
2023/03/10 05:21:56;;;;;;;2.88;1.90;;;;;10.10;98435.00;;;;5046470;28;20223;-76
2023/03/10 05:24:23;;;;;;;3.78;1.85;;;;;10.10;98439.00;;;;5044948;28;20685;-75
2023/03/10 05:26:51;;;;;;;2.38;2.00;;;;;10.10;98437.00;;;;5046716;28;20195;-76
2023/03/10 05:29:19;;;;;;;2.35;1.98;;;;;10.10;98430.00;;;;5043037;28;20200;-75
2023/03/10 05:31:47;;;;;;;2.60;2.08;;;;;10.10;98425.00;;;;5031018;28;20253;-76
2023/03/10 05:34:15;;;;;;;2.90;2.40;;;;;10.10;98420.00;;;;5047685;28;20206;-75
2023/03/10 05:36:42;;;;;;;2.80;2.20;;;;;10.10;98425.00;;;;5046564;28;20610;-75
2023/03/10 05:39:11;;;;;;;2.53;2.25;;;;;10.00;98423.00;;;;5045553;28;20242;-75
2023/03/10 05:41:39;;;;;;;2.85;2.17;;;;;10.00;98432.00;;;;5046609;28;20207;-75
2023/03/10 05:44:06;;;;;;;3.92;2.42;;;;;10.00;98433.00;;;;5046007;28;20762;-75
2023/03/10 05:46:34;;;;;;;3.25;2.40;;;;;10.00;98433.00;;;;5045592;28;20191;-76
2023/03/10 05:49:01;;;;;;;3.03;2.30;;;;;10.00;98432.00;;;;5047666;28;20192;-75
2023/03/10 05:51:28;;;;;;;2.70;2.00;;;;;9.90;98432.00;;;;5047032;28;20204;-76
2023/03/10 05:53:56;;;;;;;2.75;1.85;;;;;9.90;98439.00;;;;5047147;28;20206;-75
2023/03/10 05:56:24;;;;;;;2.67;2.22;;;;;9.90;98434.00;;;;5044262;28;20211;-76
2023/03/10 05:58:52;;;;;;;5.07;2.15;;;;;9.90;98431.00;;;;5046580;28;20776;-75
2023/03/10 06:01:19;;;;;;;3.08;2.45;;;;;9.90;98429.00;;;;5044468;28;20199;-76
2023/03/10 06:03:47;;;;;;;3.60;2.65;;;;;9.90;98423.00;;;;5038417;28;20204;-76
2023/03/10 06:06:14;;;;;;;3.22;2.60;;;;;9.90;98441.00;;;;5038989;28;20211;-75
2023/03/10 06:08:41;;;;;;;3.22;2.63;;;;;9.90;98431.00;;;;5028374;28;20195;-76
2023/03/10 06:11:09;;;;;;;4.97;2.88;;;;;9.90;98433.00;;;;5043825;28;20239;-75
2023/03/10 06:13:38;;;;;;;3.30;2.38;;;;;9.90;98431.00;;;;5046322;28;20200;-76
2023/03/10 06:16:06;;;;;;;3.58;2.50;;;;;9.90;98432.00;;;;5047055;28;20200;-76
2023/03/10 06:18:34;;;;;;;3.33;2.28;;;;;9.90;98432.00;;;;5045183;28;20215;-76
2023/03/10 06:21:05;;;;;;;3.25;2.47;;;;;9.90;98431.00;;;;5038079;28;20208;-76
2023/03/10 06:23:33;;;;;;;3.92;2.72;;;;;9.90;98441.00;;;;5046447;28;20238;-75
2023/03/10 06:26:04;;;;;;;3.67;2.60;;;;;9.90;98432.00;;;;5049270;28;20202;-76
2023/03/10 06:28:34;;;;;;;4.30;2.55;;;;;9.90;98439.00;;;;5047615;28;20203;-75
2023/03/10 06:31:05;;;;;;;4.28;2.78;;;;;9.80;98437.00;;;;5045234;28;20970;-75
2023/03/10 06:33:32;;;;;;;3.80;2.65;;;;;9.90;98434.00;;;;5044425;28;20203;-76
2023/03/10 06:36:00;;;;;;;4.40;2.58;;;;;9.90;98433.00;;;;5048168;28;20580;-75
2023/03/10 06:38:29;;;;;;;3.58;2.60;;;;;9.90;98429.00;;;;5045031;28;20223;-75
2023/03/10 06:40:56;;;;;;;2.92;2.15;;;;;9.90;98432.00;;;;5041533;28;20592;-75
2023/03/10 06:43:23;;;;;;;3.55;2.20;;;;;9.90;98435.00;;;;5048237;28;20200;-75
2023/03/10 06:45:51;;;;;;;3.58;2.35;;;;;9.90;98424.00;;;;5046289;28;20203;-75
2023/03/10 06:48:19;;;;;;;2.50;1.77;;;;;9.80;98428.00;;;;5042118;28;20200;-75
2023/03/10 06:50:48;;;;;;;3.55;2.35;;;;;9.80;98423.00;;;;5045294;28;20203;-75
2023/03/10 06:53:17;;;;;;;3.65;2.20;;;;;9.80;98418.00;;;;5038111;28;20265;-76
2023/03/10 06:55:45;;;;;;;2.88;1.95;;;;;9.80;98423.00;;;;5043162;28;20274;-76
2023/03/10 06:58:12;;;;;;;3.17;2.10;;;;;9.80;98410.00;;;;5042789;28;20192;-76
2023/03/10 07:00:40;;;;;;;2.67;1.98;;;;;9.90;98408.00;;;;5044757;28;20212;-75
2023/03/10 07:03:10;;;;;;;2.92;1.95;;;;;9.90;98412.00;;;;5031239;28;20419;-76
2023/03/10 07:05:39;;;;;;;3.17;1.98;;;;;9.90;98420.00;;;;5049321;28;20207;-76
2023/03/10 07:08:06;;;;;;;2.85;1.45;;;;;9.90;98411.00;;;;5050611;28;20264;-77
2023/03/10 07:10:34;;;;;;;2.40;1.52;;;;;9.90;98413.00;;;;5044432;28;20196;-76
2023/03/10 07:13:01;;;;;;;2.58;1.55;;;;;9.90;98418.00;;;;5046094;28;21130;-76
2023/03/10 07:15:29;;;;;;;1.65;1.30;;;;;9.90;98429.00;;;;5048491;28;20279;-76
2023/03/10 07:17:56;;;;;;;2.38;1.58;;;;;10.00;98423.00;;;;5048609;28;20203;-77
2023/03/10 07:20:24;;;;;;;5.30;1.55;;;;;10.00;98430.00;;;;5043462;28;20223;-77
2023/03/10 07:22:53;;;;;;;3.72;1.85;;;;;10.00;98432.00;;;;5050836;28;20219;-77
2023/03/10 07:25:20;;;;;;;2.47;1.73;;;;;10.00;98434.00;;;;5051108;28;20557;-76
2023/03/10 07:27:48;;;;;;;1.98;1.27;;;;;10.00;98439.00;;;;5048626;28;20206;-77
2023/03/10 07:30:15;;;;;;;2.58;1.67;;;;;10.10;98439.00;;;;5049573;28;20288;-77
2023/03/10 07:32:44;;;;;;;5.22;2.40;;;;;10.10;98444.00;;;;5049586;28;20215;-76
2023/03/10 07:35:11;;;;;;;2.78;1.80;;;;;10.10;98448.00;;;;5050137;28;20195;-77
2023/03/10 07:37:39;;;;;;;2.40;1.55;;;;;10.10;98451.00;;;;5051021;28;20203;-76
2023/03/10 07:40:09;;;;;;;2.78;1.90;;;;;10.10;98458.00;;;;5049386;28;20220;-76
2023/03/10 07:42:36;;;;;;;2.72;1.73;;;;;10.10;98459.00;;;;5051269;28;20195;-77
2023/03/10 07:45:05;;;;;;;1.83;1.20;;;;;10.20;98455.00;;;;5048745;28;20192;-76
2023/03/10 07:47:32;;;;;;;2.22;1.48;;;;;10.20;98463.00;;;;5030611;28;20196;-76
2023/03/10 07:49:59;;;;;;;2.72;1.70;;;;;10.20;98463.00;;;;5033941;28;20286;-76
2023/03/10 07:52:27;;;;;;;2.03;1.40;;;;;10.20;98461.00;;;;5049828;28;20196;-76
2023/03/10 07:54:55;;;;;;;2.25;1.60;;;;;10.20;98470.00;;;;5045521;28;20216;-77
2023/03/10 07:57:23;;;;;;;1.90;1.42;;;;;10.20;98465.00;;;;5030755;28;20215;-76
2023/03/10 07:59:51;;;;;;;2.17;1.45;;;;;10.30;98473.00;;;;5032021;28;20220;-77
2023/03/10 08:02:18;;;;;;;2.35;1.85;;;;;10.30;98477.00;;;;5045536;28;20199;-76
2023/03/10 08:04:45;;;;;;;2.03;1.50;;;;;10.30;98471.00;;;;5038751;28;20208;-76
2023/03/10 08:07:13;;;;;;;2.00;1.30;;;;;10.30;98467.00;;;;5050378;28;20239;-76
2023/03/10 08:09:40;;;;;;;2.30;1.58;;;;;10.30;98472.00;;;;5049332;28;20223;-77
2023/03/10 08:12:08;;;;;;;2.58;1.70;;;;;10.30;98483.00;;;;5049254;28;20622;-76
2023/03/10 08:14:37;;;;;;;2.22;1.52;;;;;10.40;98475.00;;;;5049509;28;20200;-76
2023/03/10 08:17:04;;;;;;;2.63;1.60;;;;;10.40;98477.00;;;;5046211;28;20650;-76
2023/03/10 08:19:32;;;;;;;3.33;2.10;;;;;10.40;98490.00;;;;5043997;28;20228;-76
2023/03/10 08:22:00;;;;;;;2.30;1.63;;;;;10.40;98484.00;;;;5029329;28;20212;-76
2023/03/10 08:24:28;;;;;;;2.72;1.77;;;;;10.40;98483.00;;;;5044316;28;20588;-76
2023/03/10 08:26:55;;;;;;;2.55;1.63;;;;;10.50;98491.00;;;;5046149;28;20203;-77
2023/03/10 08:29:23;;;;;;;2.72;1.95;;;;;10.50;98487.00;;;;5049088;28;20590;-76
2023/03/10 08:31:51;;;;;;;3.15;2.05;;;;;10.50;98486.00;;;;5049575;28;20278;-76
2023/03/10 08:34:19;;;;;;;3.53;2.25;;;;;10.50;98484.00;;;;5047598;28;20211;-76
2023/03/10 08:36:46;;;;;;;2.55;1.90;;;;;10.50;98480.00;;;;5041517;28;20208;-76
2023/03/10 08:39:14;;;;;;;2.92;1.98;;;;;10.60;98485.00;;;;5043497;28;20229;-76
2023/03/10 08:41:44;;;;;;;3.67;2.78;;;;;10.60;98481.00;;;;5048871;28;20230;-76
2023/03/10 08:44:14;;;;;;;3.33;2.45;;;;;10.60;98481.00;;;;5046464;28;20208;-76
2023/03/10 08:46:42;;;;;;;3.03;2.25;;;;;10.60;98477.00;;;;5047132;28;20215;-76
2023/03/10 08:49:11;;;;;;;2.85;2.05;;;;;10.60;98482.00;;;;5050020;28;20203;-76
2023/03/10 08:51:39;;;;;;;3.25;2.50;;;;;10.70;98490.00;;;;5049605;28;20207;-76
2023/03/10 08:54:06;;;;;;;3.67;3.03;;;;;10.70;98483.00;;;;5047668;28;20199;-76
2023/03/10 08:56:34;;;;;;;3.78;2.58;;;;;10.70;98490.00;;;;5048859;28;20191;-76
2023/03/10 08:59:01;;;;;;;3.00;2.25;;;;;10.70;98491.00;;;;5047287;28;20215;-76
2023/03/10 09:01:31;;;;;;;3.58;2.45;;;;;10.70;98490.00;;;;5047762;28;20764;-76
2023/03/10 09:03:59;;;;;;;3.20;2.20;;;;;10.80;98495.00;;;;5048447;28;20576;-77
2023/03/10 09:06:27;;;;;;;2.92;2.15;;;;;10.70;98490.00;;;;5048669;28;20221;-77
2023/03/10 09:08:55;;;;;;;2.58;1.90;;;;;10.80;98480.00;;;;5048437;28;20200;-77
2023/03/10 09:11:24;;;;;;;2.33;1.80;;;;;10.80;98494.00;;;;5044648;28;20709;-77
2023/03/10 09:13:52;;;;;;;3.10;2.15;;;;;10.80;98498.00;;;;5048237;28;20200;-77
2023/03/10 09:16:20;;;;;;;2.42;1.70;;;;;10.80;98500.00;;;;5040576;28;20192;-77
2023/03/10 09:18:47;;;;;;;3.17;1.60;;;;;10.80;98493.00;;;;5040226;28;20204;-77
2023/03/10 09:21:17;;;;;;;2.40;1.65;;;;;10.80;98499.00;;;;5040587;28;20285;-77
2023/03/10 09:23:48;;;;;;;2.22;1.48;;;;;10.80;98502.00;;;;5045601;28;20230;-76
2023/03/10 09:26:16;;;;;;;2.00;1.50;;;;;10.80;98502.00;;;;5047685;28;20195;-77
2023/03/10 09:28:43;;;;;;;3.33;1.27;;;;;10.80;98500.00;;;;5032104;28;20215;-77
2023/03/10 09:31:15;;;;;;;1.38;1.10;;;;;10.80;98497.00;;;;5028718;28;20208;-77
2023/03/10 09:33:43;;;;;;;1.17;0.95;;;;;10.80;98506.00;;;;5045320;28;20196;-76
2023/03/10 09:36:10;;;;;;;1.27;1.02;;;;;10.80;98503.00;;;;5047821;28;20530;-77
2023/03/10 09:38:38;;;;;;;1.73;1.17;;;;;10.80;98493.00;;;;5046930;28;20206;-76
2023/03/10 09:41:29;;;;;;;1.83;1.20;;;;;10.70;98493.00;;;;5045531;28;20581;-76
2023/03/10 09:44:02;;;;;;;1.80;1.00;;;;;10.80;98505.00;;;;5042213;28;20222;-77
2023/03/10 09:46:40;;;;;;;1.80;1.10;;;;;10.70;98492.00;;;;5028197;28;20212;-77
2023/03/10 09:49:15;;;;;;;2.30;1.13;;;;;10.80;98499.00;;;;5027803;28;20526;-77
2023/03/10 09:51:48;;;;;;;1.77;1.15;;;;;10.80;98510.00;;;;5028100;28;20192;-77
2023/03/10 09:54:30;;;;;;;1.35;1.10;;;;;10.70;98510.00;;;;5040699;28;20199;-77
2023/03/10 09:57:03;;;;;;;1.98;1.17;;;;;10.80;98514.00;;;;5029270;28;20188;-77
2023/03/10 09:59:35;;;;;;;1.35;0.90;;;;;10.80;98524.00;;;;5031673;28;20230;-77
2023/03/10 10:02:14;;;;;;;1.15;0.85;;;;;10.80;98526.00;;;;5032088;28;20721;-77
2023/03/10 10:04:43;;;;;;;2.05;1.33;;;;;10.90;98527.00;;;;5049132;28;20292;-77
2023/03/10 10:07:15;;;;;;;1.83;1.45;;;;;10.90;98527.00;;;;5052003;28;20227;-77
2023/03/10 10:09:47;;;;;;;1.80;1.30;;;;;10.90;98528.00;;;;5050750;28;20206;-76
2023/03/10 10:12:18;;;;;;;1.85;1.40;;;;;10.90;98518.00;;;;5052293;28;20208;-77
2023/03/10 10:14:45;;;;;;;1.42;1.00;;;;;10.90;98523.00;;;;5050497;28;20199;-77
2023/03/10 10:17:24;;;;;;;2.10;1.40;;;;;10.80;98538.00;;;;5051489;28;20198;-77
2023/03/10 10:19:53;;;;;;;2.25;1.15;;;;;10.90;98538.00;;;;5032404;28;20660;-77
2023/03/10 10:22:24;;;;;;;2.03;1.40;;;;;10.80;98538.00;;;;5048501;28;20199;-76
2023/03/10 10:25:14;;;;;;;2.63;1.40;;;;;10.70;98536.00;;;;5044306;28;20207;-77
2023/03/10 10:27:44;;;;;;;1.75;1.42;;;;;10.80;98546.00;;;;5032329;28;21035;-76
2023/03/10 10:30:33;;;;;;;1.35;1.20;;;;;10.70;98544.00;;;;5039197;28;20204;-77
2023/03/10 10:33:02;;;;;;;1.95;1.42;;;;;10.80;98543.00;;;;5050249;28;20211;-76
2023/03/10 10:35:32;;;;;;;3.08;1.67;;;;;10.70;98546.00;;;;5047833;28;20234;-77
2023/03/10 10:38:01;;;;;;;2.17;1.45;;;;;10.70;98554.00;;;;5047977;28;20196;-77
2023/03/10 10:40:32;;;;;;;1.50;1.00;;;;;10.70;98547.00;;;;5048374;28;20223;-77
2023/03/10 10:43:04;;;;;;;1.50;1.20;;;;;10.70;98547.00;;;;5051590;28;20204;-77
2023/03/10 10:45:35;;;;;;;1.52;1.10;;;;;10.70;98546.00;;;;5049292;28;20265;-77
2023/03/10 10:48:03;;;;;;;1.30;0.90;;;;;10.70;98541.00;;;;5050759;28;21050;-77
2023/03/10 10:50:31;;;;;;;1.20;0.98;;;;;10.70;98549.00;;;;5049352;28;20210;-76
2023/03/10 10:53:23;;;;;;;1.88;1.20;;;;;10.60;98543.00;;;;5041001;28;20227;-77
2023/03/10 10:56:02;;;;;;;1.52;1.17;;;;;10.60;98538.00;;;;5034215;28;20239;-77
2023/03/10 10:58:33;;;;;;;1.50;0.95;;;;;10.70;98544.00;;;;5050181;28;20207;-77
2023/03/10 11:01:02;;;;;;;1.15;0.88;;;;;10.70;98542.00;;;;5047477;28;20219;-76
2023/03/10 11:03:33;;;;;;;1.15;0.98;;;;;10.70;98548.00;;;;5048947;28;20278;-76
2023/03/10 11:06:01;;;;;;;1.30;0.90;;;;;10.70;98552.00;;;;5050079;28;20196;-76
2023/03/10 11:08:33;;;;;;;1.55;1.10;;;;;10.70;98553.00;;;;5050658;28;20238;-77
2023/03/10 11:11:09;;;;;;;1.95;1.25;;;;;10.70;98553.00;;;;5040681;28;20199;-76
2023/03/10 11:13:51;;;;;;;2.08;1.10;;;;;10.70;98546.00;;;;5045732;28;20206;-76
2023/03/10 11:16:25;;;;;;;1.48;1.02;;;;;10.70;98555.00;;;;5041583;28;20195;-76
2023/03/10 11:18:58;;;;;;;2.15;1.25;;;;;10.60;98549.00;;;;5044643;28;20195;-77
2023/03/10 11:21:28;;;;;;;1.73;1.30;;;;;10.60;98549.00;;;;5045403;28;20277;-77
2023/03/10 11:24:05;;;;;;;1.60;1.10;;;;;10.60;98564.00;;;;5042814;28;20207;-77
2023/03/10 11:26:47;;;;;;;1.40;0.95;;;;;10.50;98553.00;;;;5037195;28;20192;-77
2023/03/10 11:29:27;;;;;;;1.60;1.20;;;;;10.50;98544.00;;;;5046806;28;20329;-76
2023/03/10 11:32:04;;;;;;;1.38;0.95;;;;;10.50;98545.00;;;;5047977;28;20670;-76
2023/03/10 11:34:35;;;;;;;2.33;1.40;;;;;10.50;98550.00;;;;5045365;28;20195;-76
2023/03/10 11:37:13;;;;;;;1.92;1.50;;;;;10.50;98549.00;;;;5039753;28;20197;-76
2023/03/10 11:39:50;;;;;;;1.80;1.33;;;;;10.50;98542.00;;;;5043328;28;20658;-76
2023/03/10 11:42:25;;;;;;;1.88;1.42;;;;;10.50;98549.00;;;;5044446;28;20203;-76
2023/03/10 11:45:04;;;;;;;1.67;1.27;;;;;10.40;98538.00;;;;5046405;28;20199;-77
2023/03/10 11:47:48;;;;;;;1.83;1.40;;;;;10.40;98531.00;;;;5038837;28;20199;-76
2023/03/10 11:50:25;;;;;;;2.13;1.50;;;;;10.50;98522.00;;;;5047624;28;20207;-76
2023/03/10 11:52:57;;;;;;;2.55;1.73;;;;;10.50;98524.00;;;;5050030;28;20291;-76
2023/03/10 11:55:25;;;;;;;1.83;1.40;;;;;10.60;98528.00;;;;5047632;28;20310;-76
2023/03/10 11:57:57;;;;;;;2.45;1.85;;;;;10.50;98525.00;;;;5055032;28;20201;-76
2023/03/10 12:00:33;;;;;;;1.75;1.30;;;;;10.50;98519.00;;;;5055906;28;20231;-74
2023/03/10 12:03:12;;;;;;;1.88;1.58;;;;;10.60;98531.00;;;;5048955;28;20199;-73
2023/03/10 12:05:50;;;;;;;1.65;1.45;;;;;10.60;98534.00;;;;5049128;28;20207;-73
2023/03/10 12:08:19;;;;;;;1.45;1.15;;;;;10.60;98536.00;;;;5049576;28;20717;-77
2023/03/10 12:10:49;;;;;;;1.45;1.20;;;;;10.60;98535.00;;;;5050084;28;20207;-75
2023/03/10 12:13:23;;;;;;;1.35;1.10;;;;;10.50;98540.00;;;;5048501;28;20701;-73
2023/03/10 12:15:55;;;;;;;1.98;1.25;;;;;10.50;98534.00;;;;5046162;28;20207;-74
2023/03/10 12:18:23;;;;;;;2.15;1.08;;;;;10.50;98538.00;;;;5048973;28;20203;-76
2023/03/10 12:21:16;;;;;;;1.45;1.00;;;;;10.40;98550.00;;;;5048899;28;20231;-73
2023/03/10 12:23:46;;;;;;;1.50;1.33;;;;;10.50;98547.00;;;;5033801;28;20219;-74
2023/03/10 12:26:14;;;;;;;1.88;1.15;;;;;10.50;98553.00;;;;5049353;28;20195;-74
2023/03/10 12:28:41;;;;;;;1.15;0.80;;;;;10.40;98547.00;;;;5048012;28;20203;-74
2023/03/10 12:31:13;;;;;;;0.98;0.68;;;;;10.40;98537.00;;;;5038476;28;20192;-74